createdAt,value
2022-10-12T00:00:08.370Z,6.00
2022-10-12T00:02:35.306Z,6.00
2022-10-12T00:05:02.525Z,5.90
2022-10-12T00:07:29.581Z,5.90
2022-10-12T00:09:58.206Z,5.90
2022-10-12T00:12:25.497Z,5.90
2022-10-12T00:14:52.577Z,5.80
2022-10-12T00:17:19.922Z,5.80
2022-10-12T00:19:46.877Z,5.70
2022-10-12T00:22:13.801Z,5.70
2022-10-12T00:24:43.002Z,5.70
2022-10-12T00:27:11.136Z,5.70
2022-10-12T00:29:38.653Z,5.60
2022-10-12T00:32:05.871Z,5.60
2022-10-12T00:34:33.004Z,5.60
2022-10-12T00:37:00.095Z,5.60
2022-10-12T00:39:27.207Z,5.60
2022-10-12T00:41:54.418Z,5.50
2022-10-12T00:44:46.457Z,5.50
2022-10-12T00:47:28.722Z,5.50
2022-10-12T00:50:08.196Z,5.50
2022-10-12T00:52:59.694Z,5.50
2022-10-12T00:55:31.407Z,5.50
2022-10-12T00:58:00.869Z,5.50
2022-10-12T01:00:28.797Z,5.50
2022-10-12T01:02:58.280Z,5.50
2022-10-12T01:05:25.476Z,5.50
2022-10-12T01:07:52.391Z,5.50
2022-10-12T01:10:19.957Z,5.50
2022-10-12T01:12:49.525Z,5.50
2022-10-12T01:15:17.524Z,5.50
2022-10-12T01:18:10.046Z,5.50
2022-10-12T01:20:59.423Z,5.40
2022-10-12T01:23:29.156Z,5.40
2022-10-12T01:26:21.606Z,5.50
2022-10-12T01:28:55.646Z,5.40
2022-10-12T01:31:40.958Z,5.40
2022-10-12T01:34:34.013Z,5.40
2022-10-12T01:37:08.228Z,5.40
2022-10-12T01:39:41.473Z,5.40
2022-10-12T01:42:15.673Z,5.40
2022-10-12T01:44:44.652Z,5.30
2022-10-12T01:47:14.061Z,5.30
2022-10-12T01:49:44.232Z,5.30
2022-10-12T01:52:24.503Z,5.30
2022-10-12T01:54:57.154Z,5.30
2022-10-12T01:58:02.477Z,5.20
2022-10-12T02:00:34.250Z,5.20
2022-10-12T02:03:43.737Z,5.20
2022-10-12T02:06:15.444Z,5.20
2022-10-12T02:08:54.409Z,5.10
2022-10-12T02:11:24.306Z,5.10
2022-10-12T02:13:58.906Z,5.10
2022-10-12T02:16:42.436Z,5.10
2022-10-12T02:19:13.768Z,5.10
2022-10-12T02:21:41.659Z,5.10
2022-10-12T02:24:11.667Z,5.10
2022-10-12T02:26:42.297Z,5.10
2022-10-12T02:29:16.116Z,5.10
2022-10-12T02:32:03.498Z,5.10
2022-10-12T02:34:54.734Z,5.00
2022-10-12T02:37:35.039Z,5.00
2022-10-12T02:40:21.632Z,5.00
2022-10-12T02:43:09.892Z,4.90
2022-10-12T02:45:42.762Z,4.90
2022-10-12T02:48:14.924Z,4.90
2022-10-12T02:50:42.608Z,4.90
2022-10-12T02:53:10.643Z,4.80
2022-10-12T02:55:59.259Z,4.80
2022-10-12T02:58:26.405Z,4.80
2022-10-12T03:00:55.684Z,4.80
2022-10-12T03:03:22.993Z,4.80
2022-10-12T03:05:51.194Z,4.80
2022-10-12T03:08:18.119Z,4.80
2022-10-12T03:10:45.269Z,4.80
2022-10-12T03:13:12.556Z,4.70
2022-10-12T03:15:40.496Z,4.70
2022-10-12T03:18:07.691Z,4.70
2022-10-12T03:20:36.679Z,4.70
2022-10-12T03:23:03.754Z,4.60
2022-10-12T03:25:30.903Z,4.60
2022-10-12T03:27:58.007Z,4.60
2022-10-12T03:30:24.858Z,4.60
2022-10-12T03:32:51.739Z,4.60
2022-10-12T03:35:18.876Z,4.60
2022-10-12T03:37:46.039Z,4.50
2022-10-12T03:40:14.363Z,4.50
2022-10-12T03:42:41.266Z,4.50
2022-10-12T03:45:09.321Z,4.50
2022-10-12T03:47:38.063Z,4.50
2022-10-12T03:50:07.484Z,4.40
2022-10-12T03:52:34.449Z,4.40
2022-10-12T03:55:01.489Z,4.40
2022-10-12T03:57:28.591Z,4.40
2022-10-12T03:59:55.676Z,4.30
2022-10-12T04:02:22.525Z,4.30
2022-10-12T04:04:49.423Z,4.30
2022-10-12T04:07:16.542Z,4.30
2022-10-12T04:09:44.610Z,4.20
2022-10-12T04:12:11.735Z,4.20
2022-10-12T04:14:38.583Z,4.20
2022-10-12T04:17:05.591Z,4.20
2022-10-12T04:19:32.592Z,4.20
2022-10-12T04:21:59.473Z,4.10
2022-10-12T04:24:26.610Z,4.20
2022-10-12T04:26:53.752Z,4.10
2022-10-12T04:29:22.174Z,4.10
2022-10-12T04:31:50.381Z,4.10
2022-10-12T04:34:17.399Z,4.10
2022-10-12T04:36:44.537Z,4.10
2022-10-12T04:39:11.871Z,4.00
2022-10-12T04:41:39.688Z,4.00
2022-10-12T04:44:07.746Z,4.00
2022-10-12T04:46:35.008Z,4.00
2022-10-12T04:49:02.182Z,3.90
2022-10-12T04:51:29.208Z,3.90
2022-10-12T04:53:56.362Z,3.90
2022-10-12T04:56:23.497Z,3.90
2022-10-12T04:58:50.668Z,3.90
2022-10-12T05:01:17.872Z,3.90
2022-10-12T05:03:44.938Z,3.90
2022-10-12T05:06:12.054Z,3.90
2022-10-12T05:08:40.136Z,3.90
2022-10-12T05:11:07.287Z,3.90
2022-10-12T05:13:34.429Z,3.90
2022-10-12T05:16:01.617Z,4.00
2022-10-12T05:18:28.700Z,4.00
2022-10-12T05:20:57.155Z,4.00
2022-10-12T05:23:24.357Z,4.10
2022-10-12T05:25:51.582Z,4.10
2022-10-12T05:28:18.594Z,4.10
2022-10-12T05:30:48.939Z,4.20
2022-10-12T05:33:15.928Z,4.20
2022-10-12T05:35:47.467Z,4.30
2022-10-12T05:38:16.054Z,4.30
2022-10-12T05:40:43.789Z,4.40
2022-10-12T05:43:10.871Z,4.40
2022-10-12T05:45:37.722Z,4.50
2022-10-12T05:48:04.847Z,4.50
2022-10-12T05:50:31.914Z,4.60
2022-10-12T05:52:58.877Z,4.70
2022-10-12T05:55:25.688Z,4.80
2022-10-12T05:57:55.956Z,4.80
2022-10-12T06:00:23.090Z,4.90
2022-10-12T06:02:50.038Z,5.00
2022-10-12T06:05:17.246Z,5.00
2022-10-12T06:07:44.346Z,5.10
2022-10-12T06:10:12.139Z,5.30
2022-10-12T06:12:39.797Z,5.30
2022-10-12T06:15:07.798Z,5.40
2022-10-12T06:17:34.778Z,5.50
2022-10-12T06:20:01.747Z,5.60
2022-10-12T06:22:28.914Z,5.70
2022-10-12T06:24:56.039Z,5.90
2022-10-12T06:27:22.931Z,6.00
2022-10-12T06:29:50.025Z,6.10
2022-10-12T06:32:16.945Z,6.20
2022-10-12T06:34:44.079Z,6.30
2022-10-12T06:37:25.403Z,6.40
2022-10-12T06:39:58.322Z,6.50
2022-10-12T06:42:25.508Z,6.70
2022-10-12T06:44:52.620Z,6.80
2022-10-12T06:47:19.763Z,6.90
2022-10-12T06:49:46.898Z,7.00
2022-10-12T06:52:13.737Z,7.10
2022-10-12T06:54:41.462Z,7.20
2022-10-12T06:57:08.488Z,7.30
2022-10-12T06:59:35.677Z,7.50
2022-10-12T07:02:02.970Z,7.50
2022-10-12T07:04:29.881Z,7.60
2022-10-12T07:06:56.681Z,7.80
2022-10-12T07:09:23.496Z,7.90
2022-10-12T07:11:50.340Z,7.90
2022-10-12T07:14:17.142Z,8.10
2022-10-12T07:16:44.129Z,8.20
2022-10-12T07:19:11.141Z,8.30
2022-10-12T07:21:38.186Z,8.40
2022-10-12T07:24:05.701Z,8.50
2022-10-12T07:26:32.821Z,8.60
2022-10-12T07:29:02.215Z,8.70
2022-10-12T07:31:29.278Z,8.80
2022-10-12T07:33:56.382Z,8.90
2022-10-12T07:36:24.541Z,9.00
2022-10-12T07:38:51.676Z,9.10
2022-10-12T07:41:19.218Z,9.20
2022-10-12T07:43:46.365Z,9.30
2022-10-12T07:46:13.354Z,9.30
2022-10-12T07:48:47.239Z,9.40
2022-10-12T07:51:16.146Z,9.50
2022-10-12T07:53:43.141Z,9.60
2022-10-12T07:56:15.031Z,9.70
2022-10-12T07:58:54.353Z,9.80
2022-10-12T08:01:23.761Z,9.90
2022-10-12T08:03:51.241Z,10.00
2022-10-12T08:06:21.902Z,10.10
2022-10-12T08:08:49.609Z,10.20
2022-10-12T08:11:17.163Z,10.30
2022-10-12T08:13:44.726Z,10.30
2022-10-12T08:16:18.802Z,10.30
2022-10-12T08:18:46.331Z,10.40
2022-10-12T08:21:15.282Z,10.40
2022-10-12T08:23:44.633Z,10.50
2022-10-12T08:26:13.414Z,10.60
2022-10-12T08:28:40.494Z,10.60
2022-10-12T08:31:10.025Z,10.70
2022-10-12T08:33:37.142Z,10.70
2022-10-12T08:36:06.593Z,10.80
2022-10-12T08:38:35.135Z,10.90
2022-10-12T08:41:10.885Z,10.90
2022-10-12T08:44:24.112Z,11.00
2022-10-12T08:47:11.059Z,11.20
2022-10-12T08:49:40.330Z,11.20
2022-10-12T08:52:34.853Z,11.30
2022-10-12T08:55:16.710Z,11.30
2022-10-12T08:57:49.053Z,11.50
2022-10-12T09:00:18.142Z,11.50
2022-10-12T09:03:01.458Z,11.60
2022-10-12T09:05:42.068Z,11.60
2022-10-12T09:08:35.135Z,11.70
2022-10-12T09:11:26.170Z,11.70
2022-10-12T09:14:01.593Z,11.80
2022-10-12T09:16:31.312Z,11.80
2022-10-12T09:19:10.086Z,11.90
2022-10-12T09:21:39.867Z,12.00
2022-10-12T09:24:15.100Z,12.00
2022-10-12T09:26:43.811Z,12.10
2022-10-12T09:29:26.902Z,12.20
2022-10-12T09:32:15.347Z,12.20
2022-10-12T09:34:43.471Z,12.30
2022-10-12T09:37:19.870Z,12.30
2022-10-12T09:39:47.141Z,12.40
2022-10-12T09:42:14.027Z,12.40
2022-10-12T09:44:59.335Z,12.50
2022-10-12T09:47:33.545Z,12.50
2022-10-12T09:50:02.418Z,12.60
2022-10-12T09:52:30.595Z,12.70
2022-10-12T09:55:15.407Z,12.80
2022-10-12T09:57:51.778Z,12.80
2022-10-12T10:00:27.882Z,12.90
2022-10-12T10:02:56.309Z,12.90
2022-10-12T10:05:27.730Z,13.00
2022-10-12T10:08:19.404Z,13.00
2022-10-12T10:10:53.525Z,13.10
2022-10-12T10:13:22.670Z,13.10
2022-10-12T10:16:01.273Z,13.10
2022-10-12T10:18:48.770Z,13.10
2022-10-12T10:21:45.187Z,13.20
2022-10-12T10:24:31.667Z,13.20
2022-10-12T10:27:02.084Z,13.20
2022-10-12T10:29:36.325Z,13.30
2022-10-12T10:32:30.159Z,13.40
2022-10-12T10:35:21.186Z,13.40
2022-10-12T10:37:56.423Z,13.50
2022-10-12T10:40:29.154Z,13.60
2022-10-12T10:42:58.510Z,13.60
2022-10-12T10:45:37.571Z,13.70
2022-10-12T10:48:11.480Z,13.80
2022-10-12T10:50:41.376Z,13.90
2022-10-12T10:53:44.234Z,14.00
2022-10-12T10:56:16.679Z,14.00
2022-10-12T10:58:59.090Z,14.00
2022-10-12T11:01:48.369Z,14.00
2022-10-12T11:04:21.788Z,14.10
2022-10-12T11:06:53.710Z,14.10
2022-10-12T11:09:32.332Z,14.10
2022-10-12T11:12:12.546Z,14.20
2022-10-12T11:14:45.036Z,14.30
2022-10-12T11:17:23.958Z,14.50
2022-10-12T11:20:33.330Z,14.70
2022-10-12T11:23:24.563Z,14.90
2022-10-12T11:26:00.283Z,15.10
2022-10-12T11:28:31.266Z,15.30
2022-10-12T11:30:58.963Z,15.60
2022-10-12T11:33:38.370Z,15.90
2022-10-12T11:36:12.616Z,16.10
2022-10-12T11:38:46.026Z,16.50
2022-10-12T11:44:13.216Z,17.20
2022-10-12T11:46:56.209Z,17.40
2022-10-12T11:49:34.660Z,17.30
2022-10-12T11:52:09.437Z,17.10
2022-10-12T11:54:46.601Z,16.90
2022-10-12T11:57:17.975Z,16.60
2022-10-12T11:59:50.743Z,16.50
2022-10-12T12:02:31.703Z,16.60
2022-10-12T12:04:59.127Z,17.00
2022-10-12T12:07:42.477Z,17.60
2022-10-12T12:10:37.282Z,18.10
2022-10-12T12:13:15.304Z,18.80
2022-10-12T12:16:03.510Z,19.20
2022-10-12T12:19:08.527Z,19.60
2022-10-12T12:22:10.287Z,19.70
2022-10-12T12:24:39.127Z,19.40
2022-10-12T12:27:34.284Z,19.10
2022-10-12T12:30:07.153Z,18.80
2022-10-12T12:32:56.676Z,18.50
2022-10-12T12:35:51.969Z,18.40
2022-10-12T12:38:29.598Z,18.30
2022-10-12T12:41:30.202Z,17.80
2022-10-12T12:43:59.541Z,17.20
2022-10-12T12:46:52.002Z,16.60
2022-10-12T12:49:47.454Z,16.10
2022-10-12T12:52:19.717Z,15.80
2022-10-12T12:55:15.888Z,15.50
2022-10-12T12:58:07.118Z,15.40
2022-10-12T13:00:50.233Z,15.20
2022-10-12T13:03:31.478Z,15.00
2022-10-12T13:06:35.247Z,14.80
2022-10-12T13:09:26.069Z,14.70
2022-10-12T13:12:15.490Z,14.50
2022-10-12T13:15:19.338Z,14.50
2022-10-12T13:18:04.475Z,14.40
2022-10-12T13:20:37.484Z,14.30
2022-10-12T13:23:10.018Z,14.30
2022-10-12T13:25:43.347Z,14.20
2022-10-12T13:28:21.844Z,14.20
2022-10-12T13:31:11.483Z,14.20
2022-10-12T13:34:05.361Z,14.10
2022-10-12T13:36:36.124Z,14.00
2022-10-12T13:39:20.651Z,14.00
2022-10-12T13:41:51.528Z,13.90
2022-10-12T13:44:37.343Z,13.90
2022-10-12T13:47:23.674Z,13.80
2022-10-12T13:49:50.909Z,13.80
2022-10-12T13:52:32.373Z,13.80
2022-10-12T13:55:00.152Z,13.90
2022-10-12T13:57:35.486Z,14.20
2022-10-12T14:00:19.121Z,14.50
2022-10-12T14:03:01.033Z,15.00
2022-10-12T14:05:33.344Z,15.30
2022-10-12T14:08:07.000Z,15.40
2022-10-12T14:10:36.802Z,15.50
2022-10-12T14:13:05.536Z,15.40
2022-10-12T14:15:35.758Z,15.40
2022-10-12T14:18:04.664Z,15.30
2022-10-12T14:20:38.903Z,15.20
2022-10-12T14:23:14.171Z,15.00
2022-10-12T14:25:55.382Z,14.80
2022-10-12T14:28:33.011Z,14.70
2022-10-12T14:30:59.909Z,14.50
2022-10-12T14:33:27.867Z,14.40
2022-10-12T14:36:20.909Z,14.30
2022-10-12T14:38:49.651Z,14.30
2022-10-12T14:41:28.678Z,14.20
2022-10-12T14:44:22.475Z,14.10
2022-10-12T14:47:06.098Z,14.00
2022-10-12T14:49:39.145Z,14.00
2022-10-12T14:52:07.453Z,14.00
2022-10-12T14:54:34.314Z,14.00
2022-10-12T14:57:14.765Z,14.00
2022-10-12T14:59:42.165Z,13.90
2022-10-12T15:02:27.762Z,13.90
2022-10-12T15:04:56.423Z,13.90
2022-10-12T15:07:32.829Z,13.90
2022-10-12T15:10:00.608Z,13.80
2022-10-12T15:12:30.501Z,13.80
2022-10-12T15:14:59.946Z,13.80
2022-10-12T15:17:27.034Z,13.80
2022-10-12T15:19:54.008Z,13.70
2022-10-12T15:22:23.392Z,13.70
2022-10-12T15:24:51.732Z,13.60
2022-10-12T15:27:19.108Z,13.60
2022-10-12T15:29:48.077Z,13.50
2022-10-12T15:32:17.251Z,13.50
2022-10-12T15:34:44.501Z,13.50
2022-10-12T15:37:11.744Z,13.40
2022-10-12T15:39:38.712Z,13.40
2022-10-12T15:42:05.713Z,13.40
2022-10-12T15:44:40.123Z,13.30
2022-10-12T15:47:06.965Z,13.30
2022-10-12T15:49:33.815Z,13.30
2022-10-12T15:52:00.803Z,13.30
2022-10-12T15:54:27.910Z,13.20
2022-10-12T15:56:55.398Z,13.20
2022-10-12T15:59:22.555Z,13.10
2022-10-12T16:01:49.654Z,13.10
2022-10-12T16:04:17.078Z,13.10
2022-10-12T16:06:43.961Z,13.00
2022-10-12T16:09:10.794Z,13.00
2022-10-12T16:11:37.744Z,12.90
2022-10-12T16:14:04.830Z,12.90
2022-10-12T16:16:32.324Z,12.80
2022-10-12T16:18:59.498Z,12.80
2022-10-12T16:21:26.580Z,12.70
2022-10-12T16:23:53.926Z,12.70
2022-10-12T16:26:21.003Z,12.70
2022-10-12T16:28:48.139Z,12.60
2022-10-12T16:31:17.800Z,12.60
2022-10-12T16:33:45.609Z,12.50
2022-10-12T16:36:15.523Z,12.50
2022-10-12T16:38:43.496Z,12.50
2022-10-12T16:41:17.345Z,12.50
2022-10-12T16:43:44.239Z,12.50
2022-10-12T16:46:11.156Z,12.50
2022-10-12T16:48:38.440Z,12.40
2022-10-12T16:51:10.728Z,12.50
2022-10-12T16:53:38.166Z,12.40
2022-10-12T16:56:05.610Z,12.40
2022-10-12T16:58:33.039Z,12.40
2022-10-12T17:01:09.077Z,12.40
2022-10-12T17:03:36.003Z,12.30
2022-10-12T17:06:03.040Z,12.30
2022-10-12T17:08:34.046Z,12.30
2022-10-12T17:11:09.291Z,12.20
2022-10-12T17:13:45.233Z,12.30
2022-10-12T17:16:34.038Z,12.20
2022-10-12T17:19:00.882Z,12.20
2022-10-12T17:21:28.221Z,12.20
2022-10-12T17:23:59.367Z,12.10
2022-10-12T17:26:26.277Z,12.10
2022-10-12T17:28:53.718Z,12.10
2022-10-12T17:31:20.786Z,12.10
2022-10-12T17:33:47.979Z,12.00
2022-10-12T17:36:15.052Z,12.00
2022-10-12T17:38:41.878Z,12.00
2022-10-12T17:41:08.815Z,12.00
2022-10-12T17:43:35.687Z,12.00
2022-10-12T17:46:05.112Z,11.90
2022-10-12T17:48:32.060Z,11.90
2022-10-12T17:51:09.835Z,11.90
2022-10-12T17:53:37.331Z,11.90
2022-10-12T17:56:05.610Z,11.90
2022-10-12T17:58:33.143Z,11.90
2022-10-12T18:01:12.984Z,11.90
2022-10-12T18:03:42.180Z,11.80
2022-10-12T18:06:12.090Z,11.70
2022-10-12T18:08:39.378Z,11.70
2022-10-12T18:11:07.140Z,11.60
2022-10-12T18:13:35.723Z,11.60
2022-10-12T18:16:03.457Z,11.60
2022-10-12T18:18:30.513Z,11.60
2022-10-12T18:20:57.685Z,11.60
2022-10-12T18:23:24.832Z,11.60
2022-10-12T18:25:52.906Z,11.50
2022-10-12T18:28:20.071Z,11.50
2022-10-12T18:30:49.097Z,11.50
2022-10-12T18:33:17.576Z,11.50
2022-10-12T18:35:44.569Z,11.50
2022-10-12T18:38:12.627Z,11.50
2022-10-12T18:40:42.159Z,11.40
2022-10-12T18:43:10.317Z,11.40
2022-10-12T18:45:44.746Z,11.30
2022-10-12T18:48:12.881Z,11.30
2022-10-12T18:50:39.899Z,11.30
2022-10-12T18:53:07.275Z,11.30
2022-10-12T18:55:39.156Z,11.30
2022-10-12T18:58:06.239Z,11.20
2022-10-12T19:00:33.483Z,11.20
2022-10-12T19:03:00.435Z,11.10
2022-10-12T19:05:27.604Z,11.20
2022-10-12T19:07:54.711Z,11.10
2022-10-12T19:10:21.600Z,11.10
2022-10-12T19:12:48.485Z,11.10
2022-10-12T19:15:15.457Z,11.10
2022-10-12T19:17:42.352Z,11.10
2022-10-12T19:20:09.530Z,11.10
2022-10-12T19:22:36.376Z,11.10
2022-10-12T19:25:03.530Z,11.00
2022-10-12T19:27:30.389Z,11.00
2022-10-12T19:29:57.236Z,10.90
2022-10-12T19:32:24.070Z,10.90
2022-10-12T19:34:52.152Z,10.80
2022-10-12T19:37:19.055Z,10.80
2022-10-12T19:39:47.136Z,10.70
2022-10-12T19:42:14.048Z,10.70
2022-10-12T19:44:40.900Z,10.70
2022-10-12T19:47:07.769Z,10.70
2022-10-12T19:49:37.790Z,10.60
2022-10-12T19:52:06.327Z,10.60
2022-10-12T19:54:36.243Z,10.60
2022-10-12T19:57:03.388Z,10.60
2022-10-12T19:59:30.213Z,10.50
2022-10-12T20:01:57.098Z,10.50
2022-10-12T20:04:24.241Z,10.50
2022-10-12T20:06:51.051Z,10.50
2022-10-12T20:09:17.890Z,10.40
2022-10-12T20:11:44.766Z,10.40
2022-10-12T20:14:11.759Z,10.40
2022-10-12T20:16:38.601Z,10.30
2022-10-12T20:19:06.971Z,10.30
2022-10-12T20:21:36.367Z,10.20
2022-10-12T20:24:03.381Z,10.20
2022-10-12T20:26:30.361Z,10.10
2022-10-12T20:28:57.540Z,10.00
2022-10-12T20:31:24.870Z,10.00
2022-10-12T20:33:56.309Z,9.90
2022-10-12T20:36:28.546Z,9.90
2022-10-12T20:38:57.124Z,9.80
2022-10-12T20:41:25.337Z,9.80
2022-10-12T20:43:57.357Z,9.70
2022-10-12T20:46:24.553Z,9.70
2022-10-12T20:48:57.344Z,9.70
2022-10-12T20:51:28.666Z,9.70
2022-10-12T20:53:59.250Z,9.60
2022-10-12T20:56:31.131Z,9.60
2022-10-12T20:58:59.285Z,9.60
2022-10-12T21:01:26.726Z,9.50
2022-10-12T21:03:54.543Z,9.50
2022-10-12T21:06:23.564Z,9.40
2022-10-12T21:08:52.527Z,9.30
2022-10-12T21:11:19.981Z,9.30
2022-10-12T21:13:46.968Z,9.20
2022-10-12T21:16:14.542Z,9.10
2022-10-12T21:18:42.561Z,9.00
2022-10-12T21:21:13.670Z,8.90
2022-10-12T21:23:42.066Z,8.90
2022-10-12T21:26:15.153Z,8.80
2022-10-12T21:28:42.269Z,8.70
2022-10-12T21:31:10.979Z,8.60
2022-10-12T21:33:38.922Z,8.50
2022-10-12T21:36:07.437Z,8.40
2022-10-12T21:38:34.730Z,8.40
2022-10-12T21:41:01.605Z,8.30
2022-10-12T21:43:28.785Z,8.30
2022-10-12T21:45:55.896Z,8.30
2022-10-12T21:48:22.731Z,8.20
2022-10-12T21:50:49.875Z,8.20
2022-10-12T21:53:16.750Z,8.10
2022-10-12T21:55:43.634Z,8.10
2022-10-12T21:58:10.750Z,8.10
2022-10-12T22:00:38.120Z,8.00
2022-10-12T22:03:05.004Z,7.90
2022-10-12T22:05:32.107Z,7.90
2022-10-12T22:07:59.031Z,7.90
2022-10-12T22:10:25.884Z,7.80
2022-10-12T22:12:52.694Z,7.70
2022-10-12T22:15:19.645Z,7.70
2022-10-12T22:17:46.483Z,7.70
2022-10-12T22:20:13.469Z,7.60
2022-10-12T22:22:40.549Z,7.60
2022-10-12T22:25:07.924Z,7.60
2022-10-12T22:27:34.926Z,7.50
2022-10-12T22:30:01.999Z,7.50
2022-10-12T22:32:29.214Z,7.50
2022-10-12T22:34:56.297Z,7.40
2022-10-12T22:37:23.481Z,7.40
2022-10-12T22:39:50.593Z,7.30
2022-10-12T22:42:18.050Z,7.30
2022-10-12T22:44:45.172Z,7.30
2022-10-12T22:47:12.020Z,7.30
2022-10-12T22:49:39.149Z,7.20
2022-10-12T22:52:06.106Z,7.20
2022-10-12T22:54:33.071Z,7.10
2022-10-12T22:57:00.325Z,7.10
2022-10-12T22:59:27.433Z,7.00
2022-10-12T23:01:54.696Z,7.00
2022-10-12T23:04:21.932Z,7.00
2022-10-12T23:06:48.839Z,7.00
2022-10-12T23:09:16.005Z,7.00
2022-10-12T23:11:43.120Z,6.90
2022-10-12T23:14:11.595Z,6.90
2022-10-12T23:16:38.686Z,6.90
2022-10-12T23:19:06.299Z,6.80
2022-10-12T23:21:34.572Z,6.80
2022-10-12T23:24:04.932Z,6.80
2022-10-12T23:26:32.547Z,6.80
2022-10-12T23:29:00.000Z,6.70
2022-10-12T23:31:30.607Z,6.70
2022-10-12T23:33:59.720Z,6.70
2022-10-12T23:36:27.057Z,6.70
2022-10-12T23:38:54.265Z,6.60
2022-10-12T23:41:21.319Z,6.60
2022-10-12T23:43:48.446Z,6.60
2022-10-12T23:46:15.285Z,6.60
2022-10-12T23:48:42.386Z,6.60
2022-10-12T23:51:10.228Z,6.60
2022-10-12T23:53:38.272Z,6.50
2022-10-12T23:56:06.228Z,6.50
2022-10-12T23:58:33.702Z,6.50
